Time;durP1;ratioP1;P1;durP2;ratioP2;P2;SDS_P1;SDS_P2;PMS_P1;PMS_P2;Temp;Humidity;BMP_temperature;BMP_pressure;BME280_temperature;BME280_humidity;BME280_pressure;Samples;Min_cycle;Max_cycle;Signal;HPM_P1;HPM_P2
2022/03/25 00:01:18;;;;;;;31.58;16.25;;;;;;;5.60;96.51;101480.06;5006313;28;20072;-72
2022/03/25 00:04:02;;;;;;;36.97;16.60;;;;;;;5.62;96.31;101478.19;5035095;28;20041;-71
2022/03/25 00:06:46;;;;;;;31.42;16.20;;;;;;;5.63;97.19;101473.78;5020165;28;20495;-71
2022/03/25 00:09:30;;;;;;;29.25;15.27;;;;;;;5.67;95.78;101478.81;5020037;28;20048;-72
2022/03/25 00:12:14;;;;;;;28.38;14.98;;;;;;;5.55;99.77;101481.28;5019828;28;20059;-71
2022/03/25 00:14:58;;;;;;;30.63;15.95;;;;;;;5.52;97.86;101477.00;5035194;28;20052;-71
2022/03/25 00:17:43;;;;;;;33.75;16.55;;;;;;;5.51;97.86;101480.56;5019842;28;20107;-71
2022/03/25 00:20:26;;;;;;;23.70;14.07;;;;;;;5.51;98.77;101479.69;5020073;28;20409;-71
2022/03/25 00:23:11;;;;;;;25.40;14.63;;;;;;;5.45;99.32;101478.25;5019644;28;20080;-71
2022/03/25 00:25:56;;;;;;;30.23;15.10;;;;;;;5.48;97.91;101479.88;5034883;28;20051;-72
2022/03/25 00:28:40;;;;;;;26.70;15.35;;;;;;;5.47;98.71;101478.19;5020146;28;20091;-71
2022/03/25 00:31:27;;;;;;;26.42;14.13;;;;;;;5.42;100.00;101488.16;5005855;28;20150;-72
2022/03/25 00:34:10;;;;;;;29.65;15.27;;;;;;;5.35;100.00;101487.63;5019746;28;20048;-72
2022/03/25 00:36:54;;;;;;;28.55;16.10;;;;;;;5.30;100.00;101491.44;5005944;28;20049;-72
2022/03/25 00:39:38;;;;;;;28.65;15.45;;;;;;;5.33;100.00;101480.72;5034699;28;20129;-71
2022/03/25 00:42:22;;;;;;;32.17;15.52;;;;;;;5.33;100.00;101486.84;5019252;28;20044;-72
2022/03/25 00:45:07;;;;;;;30.27;15.98;;;;;;;5.30;100.00;101475.56;5034291;28;20056;-72
2022/03/25 00:47:51;;;;;;;25.55;14.52;;;;;;;5.28;100.00;101480.97;5034501;28;20464;-71
2022/03/25 00:50:35;;;;;;;31.67;15.65;;;;;;;5.24;100.00;101482.03;5034217;28;20425;-72
2022/03/25 00:53:19;;;;;;;26.80;15.25;;;;;;;5.23;100.00;101474.22;5019170;28;20052;-72
2022/03/25 00:56:04;;;;;;;32.92;16.67;;;;;;;5.15;100.00;101474.59;5005266;28;20048;-71
2022/03/25 00:58:49;;;;;;;27.92;15.10;;;;;;;5.06;100.00;101471.59;5018870;28;20040;-72
2022/03/25 01:01:32;;;;;;;29.15;15.43;;;;;;;5.03;100.00;101467.31;5034203;28;20110;-72
2022/03/25 01:04:16;;;;;;;26.80;14.80;;;;;;;5.03;100.00;101469.97;5034168;28;20515;-71
2022/03/25 01:07:00;;;;;;;31.55;16.90;;;;;;;4.99;100.00;101465.78;5019170;28;20056;-72
2022/03/25 01:09:44;;;;;;;27.63;15.48;;;;;;;5.00;100.00;101466.63;5019454;28;20518;-71
2022/03/25 01:12:28;;;;;;;38.83;17.60;;;;;;;4.95;100.00;101463.38;5033825;28;20080;-71
2022/03/25 01:15:12;;;;;;;28.90;16.05;;;;;;;4.94;100.00;101464.31;5018947;28;20048;-71
2022/03/25 01:17:56;;;;;;;25.25;15.43;;;;;;;4.97;100.00;101461.50;5033785;28;20056;-71
2022/03/25 01:20:41;;;;;;;27.90;16.20;;;;;;;4.93;100.00;101459.97;5018984;28;20124;-71
2022/03/25 01:23:25;;;;;;;33.45;15.73;;;;;;;4.93;100.00;101464.38;5018967;28;20567;-72
2022/03/25 01:26:09;;;;;;;24.55;15.05;;;;;;;4.84;100.00;101470.16;5004843;28;20056;-72
2022/03/25 01:28:53;;;;;;;29.98;15.93;;;;;;;4.83;100.00;101468.44;5033591;28;20083;-72
2022/03/25 01:31:37;;;;;;;34.25;17.10;;;;;;;4.73;100.00;101461.91;5033747;28;20095;-72
2022/03/25 01:34:21;;;;;;;32.42;16.20;;;;;;;4.69;100.00;101461.22;5018520;28;20048;-71
2022/03/25 01:37:06;;;;;;;29.20;16.02;;;;;;;4.64;100.00;101465.03;5018482;28;20088;-71
2022/03/25 01:39:49;;;;;;;31.20;16.48;;;;;;;4.55;100.00;101473.41;5033681;28;20416;-72
2022/03/25 01:42:35;;;;;;;30.45;16.27;;;;;;;4.57;100.00;101466.28;5018694;28;20071;-72
2022/03/25 01:45:38;;;;;;;32.45;17.10;;;;;;;4.52;100.00;101469.16;5033656;28;20052;-72
2022/03/25 01:48:22;;;;;;;33.60;16.40;;;;;;;4.50;100.00;101465.75;5018665;28;20048;-71
2022/03/25 01:51:06;;;;;;;29.45;15.23;;;;;;;4.48;100.00;101464.94;5018662;28;20096;-72
2022/03/25 01:53:50;;;;;;;33.50;17.13;;;;;;;4.40;100.00;101471.56;5018554;28;20103;-72
2022/03/25 01:56:34;;;;;;;29.75;15.02;;;;;;;4.38;100.00;101468.16;5018556;28;20535;-71
2022/03/25 01:59:18;;;;;;;30.70;16.20;;;;;;;4.22;100.00;101472.47;5018441;28;20504;-71
2022/03/25 02:02:03;;;;;;;32.78;16.25;;;;;;;4.27;100.00;101463.38;5018244;28;20047;-71
2022/03/25 02:04:48;;;;;;;28.67;14.85;;;;;;;4.25;100.00;101467.06;5033449;28;20539;-72
2022/03/25 02:07:32;;;;;;;29.80;15.95;;;;;;;4.21;100.00;101460.19;5018437;28;20604;-71
2022/03/25 02:10:17;;;;;;;36.88;15.90;;;;;;;4.19;100.00;101465.56;5019867;28;20124;-71
2022/03/25 02:13:02;;;;;;;29.45;15.55;;;;;;;4.05;100.00;101462.72;5022098;28;20068;-71
2022/03/25 02:15:49;;;;;;;35.50;17.25;;;;;;;3.99;100.00;101462.19;5022650;28;20076;-71
2022/03/25 02:18:33;;;;;;;35.78;17.27;;;;;;;3.93;100.00;101457.19;5022015;28;20136;-71
2022/03/25 02:21:17;;;;;;;34.25;17.65;;;;;;;3.89;100.00;101467.06;5008332;28;20187;-71
2022/03/25 02:24:01;;;;;;;35.35;18.15;;;;;;;3.74;100.00;101461.66;5037172;28;20044;-71
2022/03/25 02:26:45;;;;;;;29.05;16.27;;;;;;;3.74;100.00;101459.03;5021904;28;20520;-72
2022/03/25 02:29:29;;;;;;;34.03;17.48;;;;;;;3.62;100.00;101468.34;5007981;28;20052;-71
2022/03/25 02:32:12;;;;;;;35.90;16.83;;;;;;;3.64;100.00;101466.50;5022089;28;20504;-71
2022/03/25 02:34:56;;;;;;;29.80;15.00;;;;;;;3.66;100.00;101461.16;5021769;28;20504;-71
2022/03/25 02:37:40;;;;;;;35.70;18.05;;;;;;;3.62;100.00;101457.81;5021680;28;20051;-71
2022/03/25 02:40:27;;;;;;;35.00;17.30;;;;;;;3.62;100.00;101459.56;5021927;28;20512;-71
2022/03/25 02:43:12;;;;;;;36.38;18.33;;;;;;;3.50;100.00;101457.50;5007609;28;20500;-71
2022/03/25 02:45:56;;;;;;;29.40;15.73;;;;;;;3.45;100.00;101449.81;5036569;28;20107;-71
2022/03/25 02:48:39;;;;;;;31.55;16.63;;;;;;;3.46;100.00;101448.06;5021736;28;20140;-71
2022/03/25 02:51:23;;;;;;;29.23;16.75;;;;;;;3.42;100.00;101460.50;5036384;28;20475;-71
2022/03/25 02:54:08;;;;;;;31.90;15.77;;;;;;;3.50;100.00;101454.88;5021652;28;20104;-71
2022/03/25 02:56:52;;;;;;;31.35;16.17;;;;;;;3.55;100.00;101456.38;5007800;28;20063;-70
2022/03/25 02:59:36;;;;;;;31.80;15.10;;;;;;;3.57;100.00;101453.69;5021285;28;20071;-71
2022/03/25 03:02:19;;;;;;;27.55;16.08;;;;;;;3.58;100.00;101455.38;5036364;28;20048;-72
2022/03/25 03:05:06;;;;;;;32.67;17.73;;;;;;;3.47;100.00;101455.88;5021221;28;20195;-71
2022/03/25 03:07:50;;;;;;;27.42;15.68;;;;;;;3.47;100.00;101453.22;5036151;28;20095;-71
2022/03/25 03:10:34;;;;;;;;;;;;;;;3.48;100.00;101454.09;5036974;28;20489;-72
2022/03/25 03:13:18;;;;;;;29.43;13.77;;;;;;;3.48;100.00;101451.47;5022254;28;19924;-72
2022/03/25 03:16:03;;;;;;;33.95;16.27;;;;;;;3.47;100.00;101462.94;5007434;28;20132;-72
2022/03/25 03:18:47;;;;;;;29.88;15.68;;;;;;;3.40;100.00;101457.09;5022110;28;20397;-72
2022/03/25 03:21:31;;;;;;;31.05;15.88;;;;;;;3.33;100.00;101468.00;5020600;28;20095;-72
2022/03/25 03:24:15;;;;;;;36.40;18.50;;;;;;;3.32;100.00;101468.91;5020848;28;20064;-72
2022/03/25 03:26:59;;;;;;;32.97;18.00;;;;;;;3.05;100.00;101460.47;5036141;28;20052;-72
2022/03/25 03:29:43;;;;;;;34.80;17.23;;;;;;;2.98;100.00;101468.72;5021013;28;20052;-72
2022/03/25 03:32:27;;;;;;;32.22;17.95;;;;;;;3.00;100.00;101466.84;5020998;28;20048;-72
2022/03/25 03:35:12;;;;;;;31.80;17.30;;;;;;;3.05;100.00;101457.00;5035840;28;20053;-72
2022/03/25 03:37:56;;;;;;;34.45;18.75;;;;;;;3.10;100.00;101457.63;5035861;28;20048;-72
2022/03/25 03:40:39;;;;;;;35.22;18.10;;;;;;;3.02;100.00;101459.78;5020853;28;20167;-72
2022/03/25 03:43:23;;;;;;;34.95;16.27;;;;;;;3.01;100.00;101460.66;5020400;28;20095;-72
2022/03/25 03:46:08;;;;;;;35.88;18.42;;;;;;;3.04;100.00;101452.66;5020724;28;20088;-72
2022/03/25 03:48:52;;;;;;;39.83;17.38;;;;;;;2.99;100.00;101459.88;5035450;28;20080;-72
2022/03/25 03:51:36;;;;;;;37.17;17.98;;;;;;;2.96;100.00;101462.66;5020400;28;20056;-72
2022/03/25 03:54:20;;;;;;;29.63;16.40;;;;;;;2.96;100.00;101454.75;5035364;28;20114;-72
2022/03/25 03:57:07;;;;;;;28.80;15.85;;;;;;;2.99;100.00;101454.63;5020501;28;20053;-72
2022/03/25 03:59:51;;;;;;;38.88;18.73;;;;;;;2.94;100.00;101461.88;5020200;28;20052;-72
2022/03/25 04:02:35;;;;;;;36.95;16.92;;;;;;;2.97;100.00;101456.47;5006354;28;20464;-72
2022/03/25 04:05:19;;;;;;;;;;;;;;;2.97;100.00;101453.84;5006904;28;20102;-72
2022/03/25 04:08:03;;;;;;;30.17;16.20;;;;;;;2.99;100.00;101459.88;5020359;28;19975;-72
2022/03/25 04:10:47;;;;;;;33.47;17.67;;;;;;;2.94;100.00;101460.09;5034991;28;20052;-72
2022/03/25 04:13:31;;;;;;;34.22;18.30;;;;;;;2.91;100.00;101454.09;5005935;28;20099;-72
2022/03/25 04:16:15;;;;;;;34.90;19.33;;;;;;;2.82;100.00;101462.41;5020107;28;20106;-72
2022/03/25 04:18:59;;;;;;;36.40;20.10;;;;;;;2.82;100.00;101460.63;5019910;28;20413;-72
2022/03/25 04:21:43;;;;;;;38.03;18.55;;;;;;;-139.48;100.00;61774.03;5019908;28;20043;-72
2022/03/25 04:24:27;;;;;;;35.88;19.25;;;;;;;-139.48;100.00;61774.03;5006090;28;20071;-72
2022/03/25 04:27:10;;;;;;;;;;;;;;;-139.48;100.00;61774.03;5020329;28;20052;-72
2022/03/25 04:29:55;;;;;;;37.67;19.97;;;;;;;-139.48;100.00;61774.03;5019953;28;19920;-71
2022/03/25 04:32:39;;;;;;;33.47;18.75;;;;;;;-139.48;100.00;61774.03;5018741;28;20063;-72
2022/03/25 04:35:24;;;;;;;39.53;21.42;;;;;;;-139.48;100.00;61774.03;5019952;28;20060;-72
2022/03/25 04:38:08;;;;;;;34.38;18.38;;;;;;;-139.48;100.00;61774.03;5006050;28;20111;-72
2022/03/25 04:40:53;;;;;;;38.38;20.65;;;;;;;-139.48;100.00;61774.03;5019718;28;20099;-72
2022/03/25 04:43:37;;;;;;;39.03;20.65;;;;;;;-139.48;100.00;61774.03;5019214;28;20048;-72
2022/03/25 04:46:21;;;;;;;42.28;21.27;;;;;;;-139.48;100.00;61774.03;5005457;28;20092;-72
2022/03/25 04:49:07;;;;;;;37.20;20.48;;;;;;;-139.48;100.00;61774.03;5034507;28;20136;-72
2022/03/25 04:51:51;;;;;;;34.97;19.85;;;;;;;-139.48;100.00;61774.03;5034130;28;20210;-72
2022/03/25 04:54:36;;;;;;;46.67;20.98;;;;;;;-139.48;100.00;61774.03;5034691;28;20401;-72
2022/03/25 04:57:21;;;;;;;38.05;19.35;;;;;;;-139.48;100.00;61774.03;5019596;28;20080;-73
2022/03/25 05:00:06;;;;;;;36.38;20.08;;;;;;;-139.48;100.00;61774.03;5019281;28;20051;-72
2022/03/25 05:02:50;;;;;;;37.53;19.75;;;;;;;-139.48;100.00;61774.03;5005218;28;20102;-72
2022/03/25 05:05:34;;;;;;;35.70;20.35;;;;;;;-139.48;100.00;61774.03;5019276;28;20092;-72
2022/03/25 05:08:18;;;;;;;43.65;24.33;;;;;;;-139.48;100.00;61774.03;5019241;28;20048;-72
2022/03/25 05:11:02;;;;;;;41.30;21.52;;;;;;;-139.48;100.00;61774.03;5019515;28;20140;-72
2022/03/25 05:13:46;;;;;;;39.83;21.20;;;;;;;-139.48;100.00;61774.03;5019402;28;20400;-72
2022/03/25 05:16:29;;;;;;;42.00;22.52;;;;;;;-139.48;100.00;61774.03;5019059;28;20463;-72
2022/03/25 05:19:13;;;;;;;44.80;22.67;;;;;;;-139.48;100.00;61774.03;5018887;28;20052;-72
2022/03/25 05:21:57;;;;;;;40.67;22.90;;;;;;;-139.48;100.00;61774.03;5033826;28;20051;-72
2022/03/25 05:24:41;;;;;;;39.60;21.40;;;;;;;-139.48;100.00;61774.03;5018987;28;20124;-72
2022/03/25 05:27:25;;;;;;;39.97;22.15;;;;;;;-139.48;100.00;61774.03;5018668;28;20048;-72
2022/03/25 05:30:10;;;;;;;;;;;;;;;-139.48;100.00;61774.03;5019320;28;20052;-72
2022/03/25 05:32:55;;;;;;;42.13;21.13;;;;;;;-139.48;100.00;61774.03;5019106;28;19920;-72
2022/03/25 05:35:39;;;;;;;38.80;21.75;;;;;;;-139.48;100.00;61774.03;5018816;28;20511;-72
2022/03/25 05:38:23;;;;;;;36.63;19.10;;;;;;;-139.48;100.00;61774.03;5018533;28;20048;-72
2022/03/25 05:41:07;;;;;;;35.90;19.73;;;;;;;-139.48;100.00;61774.03;5033626;28;20128;-72
2022/03/25 05:43:52;;;;;;;36.85;19.33;;;;;;;-139.48;100.00;61774.03;5018567;28;20044;-72
2022/03/25 05:46:36;;;;;;;39.22;18.83;;;;;;;-139.48;100.00;61774.03;5018585;28;20056;-72
2022/03/25 05:49:20;;;;;;;34.75;19.15;;;;;;;-139.48;100.00;61774.03;5018640;28;20044;-72
2022/03/25 05:52:04;;;;;;;35.08;19.13;;;;;;;-139.48;100.00;61774.03;5018477;28;20099;-72
2022/03/25 05:54:48;;;;;;;38.75;19.83;;;;;;;-139.48;100.00;61774.03;5033483;28;20118;-72
2022/03/25 05:57:32;;;;;;;42.25;19.67;;;;;;;-139.48;100.00;61774.03;5018308;28;20087;-72
2022/03/25 06:00:17;;;;;;;40.38;19.83;;;;;;;-139.48;100.00;61774.03;5004601;28;20573;-72
2022/03/25 06:03:01;;;;;;;37.45;19.98;;;;;;;-139.48;100.00;61774.03;5033278;28;20136;-72
2022/03/25 06:05:44;;;;;;;38.15;18.35;;;;;;;-139.48;100.00;61774.03;5018620;28;20049;-72
2022/03/25 06:08:30;;;;;;;39.78;19.65;;;;;;;-139.48;100.00;61774.03;5018119;28;20455;-71
2022/03/25 06:11:14;;;;;;;36.33;20.42;;;;;;;-139.48;100.00;61774.03;5018260;28;20527;-72
2022/03/25 06:13:58;;;;;;;36.13;18.98;;;;;;;-139.48;100.00;61774.03;5033047;28;20044;-72
2022/03/25 06:16:42;;;;;;;38.08;19.75;;;;;;;-139.48;100.00;61774.03;5018363;28;20501;-72
2022/03/25 06:19:26;;;;;;;34.03;18.48;;;;;;;-139.48;100.00;61774.03;5018290;28;20052;-72
2022/03/25 06:22:09;;;;;;;39.25;20.60;;;;;;;-139.48;100.00;61774.03;5032886;28;20508;-72
2022/03/25 06:24:53;;;;;;;38.97;19.63;;;;;;;-139.48;100.00;61774.03;5033151;28;20536;-72
2022/03/25 06:27:51;;;;;;;42.47;19.45;;;;;;;-139.48;100.00;61774.03;5018247;28;20056;-71
2022/03/25 06:30:37;;;;;;;43.50;19.92;;;;;;;-139.48;100.00;61774.03;5018302;28;20456;-72
2022/03/25 06:33:22;;;;;;;37.78;19.52;;;;;;;-139.48;100.00;61774.03;5032908;28;20041;-72
2022/03/25 06:36:10;;;;;;;42.85;20.67;;;;;;;-139.48;100.00;61774.03;5004381;28;20412;-72
2022/03/25 06:38:54;;;;;;;40.70;20.65;;;;;;;-139.48;100.00;61774.03;5033117;28;20096;-72
2022/03/25 06:41:38;;;;;;;34.13;19.02;;;;;;;-139.48;100.00;61774.03;5018040;28;20099;-72
2022/03/25 06:44:22;;;;;;;42.22;20.17;;;;;;;-139.48;100.00;61774.03;5032993;28;20040;-72
2022/03/25 06:47:06;;;;;;;43.28;20.27;;;;;;;-139.48;100.00;61774.03;5032827;28;20072;-72
2022/03/25 06:49:51;;;;;;;;;;;;;;;-139.48;100.00;61774.03;5018747;28;20084;-72
2022/03/25 06:52:35;;;;;;;44.63;20.33;;;;;;;-139.48;100.00;61774.03;5017871;28;19919;-72
2022/03/25 06:55:19;;;;;;;42.05;20.83;;;;;;;-139.48;100.00;61774.03;5017981;28;20044;-72
2022/03/25 06:58:04;;;;;;;39.47;22.02;;;;;;;-139.48;100.00;61774.03;5021966;28;20412;-72
2022/03/25 07:00:48;;;;;;;39.22;22.27;;;;;;;-139.48;100.00;61774.03;5036935;28;20126;-72
2022/03/25 07:03:33;;;;;;;42.50;22.40;;;;;;;-139.48;100.00;61774.03;5021442;28;20488;-72
2022/03/25 07:06:22;;;;;;;42.40;21.35;;;;;;;-139.48;100.00;61774.03;5036226;28;20095;-72
2022/03/25 07:09:06;;;;;;;45.65;22.90;;;;;;;-139.48;100.00;61774.03;5021745;28;20045;-72
2022/03/25 07:11:50;;;;;;;43.55;22.42;;;;;;;-139.48;100.00;61774.03;5007716;28;20053;-72
2022/03/25 07:14:34;;;;;;;41.75;23.08;;;;;;;-139.48;100.00;61774.03;5007448;28;20052;-72
2022/03/25 07:17:18;;;;;;;43.42;22.92;;;;;;;-139.48;100.00;61774.03;5036263;28;20099;-72
2022/03/25 07:20:02;;;;;;;39.20;22.92;;;;;;;-139.48;100.00;61774.03;5036255;28;20052;-72
2022/03/25 07:22:49;;;;;;;39.67;22.10;;;;;;;-139.48;100.00;61774.03;5035929;28;20079;-72
2022/03/25 07:25:33;;;;;;;53.88;25.80;;;;;;;-139.48;100.00;61774.03;5020886;28;20084;-72
2022/03/25 07:28:16;;;;;;;40.60;22.60;;;;;;;-139.48;100.00;61774.03;5007256;28;20076;-72
2022/03/25 07:31:01;;;;;;;45.58;25.05;;;;;;;-139.48;100.00;61774.03;5021060;28;20099;-72
2022/03/25 07:33:45;;;;;;;45.20;23.35;;;;;;;-139.48;100.00;61774.03;5035681;28;20048;-72
2022/03/25 07:36:29;;;;;;;48.78;24.42;;;;;;;-139.48;100.00;61774.03;5020877;28;20079;-72
2022/03/25 07:39:13;;;;;;;47.10;23.88;;;;;;;-139.48;100.00;61774.03;5020913;28;20056;-72
2022/03/25 07:41:57;;;;;;;48.00;23.75;;;;;;;-139.48;100.00;61774.03;5020465;28;20584;-72
2022/03/25 07:44:41;;;;;;;48.15;24.55;;;;;;;-139.48;100.00;61774.03;5035644;28;20103;-72
2022/03/25 07:47:25;;;;;;;51.28;25.23;;;;;;;-139.48;100.00;61774.03;5020545;28;20091;-72
2022/03/25 07:50:11;;;;;;;49.63;25.38;;;;;;;-139.48;100.00;61774.03;5035687;28;20488;-72
2022/03/25 07:52:54;;;;;;;49.67;26.00;;;;;;;-139.48;100.00;61774.03;5020387;28;20095;-72
2022/03/25 07:55:38;;;;;;;45.53;24.20;;;;;;;-139.48;100.00;61774.03;5020642;28;20102;-73
2022/03/25 07:58:23;;;;;;;49.47;25.48;;;;;;;-139.48;100.00;61774.03;5020323;28;20056;-73
2022/03/25 08:01:07;;;;;;;47.92;25.20;;;;;;;-139.48;100.00;61774.03;5020609;28;20052;-72
2022/03/25 08:03:51;;;;;;;51.17;26.25;;;;;;;-139.48;100.00;61774.03;5020330;28;20047;-73
2022/03/25 08:06:34;;;;;;;36.97;18.27;;;;;;;-139.48;100.00;61774.03;5020312;28;20119;-72
2022/03/25 08:09:19;;;;;;;46.70;26.00;;;;;;;-139.48;100.00;61774.03;5035211;28;20044;-73
2022/03/25 08:12:02;;;;;;;48.22;25.70;;;;;;;-139.48;100.00;61774.03;5006080;28;20508;-73
2022/03/25 08:14:47;;;;;;;55.60;26.50;;;;;;;-139.48;100.00;61774.03;5019983;28;20539;-73
2022/03/25 08:17:44;;;;;;;51.63;26.50;;;;;;;-139.48;100.00;61774.03;5006273;28;20102;-70
2022/03/25 08:20:41;;;;;;;50.47;27.10;;;;;;;-139.48;100.00;61774.03;5020128;28;20076;-73
2022/03/25 08:29:31;;;;;;;49.83;27.33;;;;;;;-139.48;100.00;61774.03;5022368;28;20044;-70
2022/03/25 08:32:16;;;;;;;49.72;26.30;;;;;;;-139.48;100.00;61774.03;5034656;28;20072;-70
2022/03/25 08:35:02;;;;;;;59.72;26.10;;;;;;;-139.48;100.00;61774.03;5020143;28;20402;-70
2022/03/25 08:37:46;;;;;;;48.42;26.60;;;;;;;-139.48;100.00;61774.03;5034727;28;20064;-69
2022/03/25 08:40:32;;;;;;;47.70;26.27;;;;;;;-139.48;100.00;61774.03;5034885;28;20048;-71
2022/03/25 08:43:16;;;;;;;54.15;28.58;;;;;;;-139.48;100.00;61774.03;5019430;28;20044;-71
2022/03/25 08:46:01;;;;;;;50.40;28.63;;;;;;;-139.48;100.00;61774.03;5019537;28;20119;-70
2022/03/25 08:48:46;;;;;;;53.20;27.23;;;;;;;-139.48;100.00;61774.03;5019766;28;20052;-70
2022/03/25 08:51:30;;;;;;;50.45;27.13;;;;;;;-139.48;100.00;61774.03;5019684;28;20043;-70
2022/03/25 08:54:14;;;;;;;55.65;27.85;;;;;;;-139.48;100.00;61774.03;5034433;28;20508;-72
2022/03/25 08:56:58;;;;;;;52.83;28.30;;;;;;;-139.48;100.00;61774.03;5034123;28;20484;-72
2022/03/25 08:59:42;;;;;;;49.65;26.85;;;;;;;-139.48;100.00;61774.03;5019324;28;20099;-72
2022/03/25 09:02:26;;;;;;;50.92;27.33;;;;;;;-139.48;100.00;61774.03;5034238;28;20048;-72
2022/03/25 09:05:11;;;;;;;46.90;27.52;;;;;;;-139.48;100.00;61774.03;5019259;28;20088;-72
2022/03/25 09:07:55;;;;;;;48.10;26.15;;;;;;;-139.48;100.00;61774.03;4991805;28;20111;-72
2022/03/25 09:10:40;;;;;;;53.70;27.75;;;;;;;-139.48;100.00;61774.03;5034046;28;20132;-73
2022/03/25 09:13:24;;;;;;;50.10;27.23;;;;;;;-139.48;100.00;61774.03;5006029;28;20060;-71
2022/03/25 09:16:09;;;;;;;50.25;27.20;;;;;;;-139.48;100.00;61774.03;5004956;28;20159;-71
2022/03/25 09:18:52;;;;;;;44.42;25.58;;;;;;;-139.48;100.00;61774.03;5018696;28;20508;-71
2022/03/25 09:21:36;;;;;;;48.13;26.88;;;;;;;-139.48;100.00;61774.03;5033833;28;20053;-71
2022/03/25 09:24:20;;;;;;;48.35;26.90;;;;;;;-139.48;100.00;61774.03;5018852;28;20104;-71
2022/03/25 09:27:04;;;;;;;44.83;25.30;;;;;;;-139.48;100.00;61774.03;5004779;28;20558;-71
2022/03/25 09:29:48;;;;;;;49.20;26.95;;;;;;;-139.48;100.00;61774.03;5004722;28;20103;-71
2022/03/25 09:32:32;;;;;;;41.67;25.55;;;;;;;-139.48;100.00;61774.03;5018685;28;20052;-71
2022/03/25 09:35:16;;;;;;;49.63;28.95;;;;;;;-139.48;100.00;61774.03;5018438;28;20417;-71
2022/03/25 09:38:00;;;;;;;51.58;27.63;;;;;;;-139.48;100.00;61774.03;5004450;28;20094;-70
2022/03/25 09:40:46;;;;;;;52.13;26.73;;;;;;;-139.48;100.00;61774.03;5033758;28;20152;-71
2022/03/25 09:43:30;;;;;;;49.80;27.00;;;;;;;-139.48;100.00;61774.03;5018134;28;20080;-70
2022/03/25 09:46:14;;;;;;;47.20;27.42;;;;;;;-139.48;100.00;61774.03;5018864;28;20051;-70
2022/03/25 09:48:58;;;;;;;48.58;28.98;;;;;;;-139.48;100.00;61774.03;5018600;28;20068;-71
2022/03/25 09:51:42;;;;;;;44.53;28.38;;;;;;;-139.48;100.00;61774.03;5033396;28;20060;-69
2022/03/25 09:54:27;;;;;;;51.42;30.40;;;;;;;-139.48;100.00;61774.03;5018529;28;20043;-69
2022/03/25 09:57:11;;;;;;;48.72;30.77;;;;;;;-139.48;100.00;61774.03;5018556;28;20104;-69
2022/03/25 09:59:55;;;;;;;46.42;30.75;;;;;;;-139.48;100.00;61774.03;5018246;28;20084;-69
2022/03/25 10:02:39;;;;;;;46.03;30.90;;;;;;;-139.48;100.00;61774.03;5018195;28;20127;-69
2022/03/25 10:05:23;;;;;;;;;;;;;;;-139.48;100.00;61774.03;5018649;28;20123;-69
2022/03/25 10:08:08;;;;;;;50.88;32.60;;;;;;;-139.48;100.00;61774.03;5033588;28;20353;-69
2022/03/25 10:10:53;;;;;;;49.85;33.83;;;;;;;-139.48;100.00;61774.03;5018409;28;20095;-69
2022/03/25 10:13:37;;;;;;;52.28;33.40;;;;;;;-139.48;100.00;61774.03;5017937;28;20080;-69
2022/03/25 10:16:28;;;;;;;44.85;33.08;;;;;;;-139.48;100.00;61774.03;5033309;28;20119;-69
2022/03/25 10:19:13;;;;;;;45.72;35.15;;;;;;;-139.48;100.00;61774.03;5004179;28;20517;-69
2022/03/25 10:22:02;;;;;;;45.20;33.22;;;;;;;-139.48;100.00;61774.03;5018138;28;20052;-69
2022/03/25 10:24:48;;;;;;;45.75;33.90;;;;;;;-139.48;100.00;61774.03;5017941;28;20098;-69
2022/03/25 10:27:32;;;;;;;50.05;35.53;;;;;;;-139.48;100.00;61774.03;5032996;28;20048;-70
2022/03/25 10:30:16;;;;;;;43.85;34.30;;;;;;;-139.48;100.00;61774.03;5018280;28;20076;-69
2022/03/25 10:33:08;;;;;;;47.08;35.85;;;;;;;-139.48;100.00;61774.03;5021979;28;20545;-69
2022/03/25 10:35:56;;;;;;;46.58;34.88;;;;;;;-139.48;100.00;61774.03;5036855;28;20068;-69
2022/03/25 10:38:43;;;;;;;43.35;33.55;;;;;;;-139.48;100.00;61774.03;5022035;28;20079;-70
2022/03/25 10:41:41;;;;;;;48.95;35.33;;;;;;;-139.48;100.00;61774.03;5007763;28;20496;-69
2022/03/25 10:44:40;;;;;;;50.95;34.75;;;;;;;-139.48;100.00;61774.03;5021648;28;20103;-69
2022/03/25 10:47:26;;;;;;;43.45;34.80;;;;;;;-139.48;100.00;61774.03;5021976;28;20057;-70
2022/03/25 10:50:13;;;;;;;41.53;33.28;;;;;;;-139.48;100.00;61774.03;5021619;28;20413;-69
2022/03/25 10:53:09;;;;;;;48.95;35.83;;;;;;;-139.48;100.00;61774.03;5021379;28;20052;-69
2022/03/25 10:56:06;;;;;;;46.28;35.90;;;;;;;-139.48;100.00;61774.03;5036715;28;20053;-69
2022/03/25 10:58:56;;;;;;;48.38;34.38;;;;;;;-139.48;100.00;61774.03;5021933;28;20573;-69
2022/03/25 11:01:40;;;;;;;41.65;34.10;;;;;;;-139.48;100.00;61774.03;5021421;28;20128;-69
2022/03/25 11:04:25;;;;;;;47.67;36.03;;;;;;;-139.48;100.00;61774.03;5036221;28;20447;-69
2022/03/25 11:07:10;;;;;;;47.25;35.67;;;;;;;-139.48;100.00;61774.03;5007650;28;20087;-70
2022/03/25 11:09:54;;;;;;;53.20;36.75;;;;;;;-139.48;100.00;61774.03;5007782;28;20083;-69
2022/03/25 11:12:40;;;;;;;43.90;36.20;;;;;;;-139.48;100.00;61774.03;5007211;28;20065;-70
2022/03/25 11:15:24;;;;;;;46.67;36.60;;;;;;;-139.48;100.00;61774.03;5021364;28;20071;-70
2022/03/25 11:18:08;;;;;;;45.10;36.20;;;;;;;-139.48;100.00;61774.03;5020976;28;20044;-69
2022/03/25 11:20:53;;;;;;;46.50;36.97;;;;;;;-139.48;100.00;61774.03;5007174;28;20052;-70
2022/03/25 11:23:42;;;;;;;47.20;36.40;;;;;;;-139.48;100.00;61774.03;5035958;28;20056;-71
2022/03/25 11:26:28;;;;;;;45.67;36.95;;;;;;;-139.48;100.00;61774.03;5021134;28;20096;-70
2022/03/25 11:29:15;;;;;;;42.67;35.55;;;;;;;-139.48;100.00;61774.03;5007192;28;20052;-70
2022/03/25 11:32:12;;;;;;;41.28;32.35;;;;;;;-139.48;100.00;61774.03;5020669;28;20139;-71
2022/03/25 11:34:56;;;;;;;45.63;35.10;;;;;;;-139.48;100.00;61774.03;5020907;28;20103;-70
2022/03/25 11:37:40;;;;;;;41.80;34.67;;;;;;;-139.48;100.00;61774.03;5035710;28;20084;-70
2022/03/25 11:40:26;;;;;;;41.50;33.28;;;;;;;-139.48;100.00;61774.03;5020780;28;20084;-71
2022/03/25 11:43:14;;;;;;;44.95;35.10;;;;;;;-139.48;100.00;61774.03;5020144;28;20496;-71
2022/03/25 11:45:58;;;;;;;44.30;33.95;;;;;;;-139.48;100.00;61774.03;5035765;28;20551;-70
2022/03/25 11:48:43;;;;;;;42.90;34.97;;;;;;;-139.48;100.00;61774.03;5035999;28;20101;-71
2022/03/25 11:51:29;;;;;;;46.35;35.53;;;;;;;-139.48;100.00;61774.03;5035377;28;20048;-71
2022/03/25 11:54:41;;;;;;;46.47;35.42;;;;;;;-139.48;100.00;61774.03;5035534;28;20504;-71
2022/03/25 11:57:27;;;;;;;51.78;36.90;;;;;;;-139.48;100.00;61774.03;5020759;28;20115;-71
2022/03/25 12:00:24;;;;;;;46.00;35.38;;;;;;;-139.48;100.00;61774.03;5020733;28;20135;-71
2022/03/25 12:03:08;;;;;;;45.03;35.50;;;;;;;-139.48;100.00;61774.03;5020082;28;20074;-71
2022/03/25 12:06:02;;;;;;;43.63;35.50;;;;;;;-139.48;100.00;61774.03;5035392;28;20496;-71
2022/03/25 12:08:56;;;;;;;48.38;36.35;;;;;;;-139.48;100.00;61774.03;5020289;28;20099;-71
2022/03/25 12:11:55;;;;;;;49.67;36.10;;;;;;;-139.48;100.00;61774.03;5019947;28;20099;-71
2022/03/25 12:15:04;;;;;;;44.25;36.75;;;;;;;-139.48;100.00;61774.03;5034784;28;20048;-70
2022/03/25 12:17:50;;;;;;;47.40;37.00;;;;;;;-139.48;100.00;61774.03;5035137;28;20398;-71
2022/03/25 12:20:40;;;;;;;47.33;36.13;;;;;;;-139.48;100.00;61774.03;5006411;28;20120;-70
2022/03/25 12:23:24;;;;;;;47.47;35.88;;;;;;;-139.48;100.00;61774.03;5019673;28;20132;-71
2022/03/25 12:26:08;;;;;;;47.75;37.00;;;;;;;-139.48;100.00;61774.03;5019670;28;20095;-71
2022/03/25 12:28:52;;;;;;;52.60;35.83;;;;;;;-139.48;100.00;61774.03;5019825;28;20118;-71